sensor_id;sensor_type;location;lat;lon;timestamp;pressure;altitude;pressure_sealevel;temperature;humidity
60015;BME280;45867;52.480;6.056;2023-04-09T00:01:53;102679.06;;;8.13;100.00
60015;BME280;45867;52.480;6.056;2023-04-09T00:04:18;102675.63;;;8.06;100.00
60015;BME280;45867;52.480;6.056;2023-04-09T00:06:43;102672.75;;;8.07;100.00
60015;BME280;45867;52.480;6.056;2023-04-09T00:09:09;102672.16;;;7.98;100.00
60015;BME280;45867;52.480;6.056;2023-04-09T00:11:34;102690.03;;;8.03;100.00
60015;BME280;45867;52.480;6.056;2023-04-09T00:14:00;102676.03;;;7.96;100.00
60015;BME280;45867;52.480;6.056;2023-04-09T00:16:25;102681.72;;;7.99;100.00
60015;BME280;45867;52.480;6.056;2023-04-09T00:18:51;102682.31;;;7.95;100.00
60015;BME280;45867;52.480;6.056;2023-04-09T00:21:16;102688.00;;;7.98;100.00
60015;BME280;45867;52.480;6.056;2023-04-09T00:23:42;102679.66;;;8.01;100.00
60015;BME280;45867;52.480;6.056;2023-04-09T00:26:07;102677.88;;;8.02;100.00
60015;BME280;45867;52.480;6.056;2023-04-09T00:28:33;102675.22;;;8.02;100.00
60015;BME280;45867;52.480;6.056;2023-04-09T00:31:00;102671.34;;;7.98;100.00
60015;BME280;45867;52.480;6.056;2023-04-09T00:33:26;102665.88;;;8.06;100.00
60015;BME280;45867;52.480;6.056;2023-04-09T00:35:51;102663.84;;;8.08;100.00
60015;BME280;45867;52.480;6.056;2023-04-09T00:38:16;102644.75;;;7.93;100.00
60015;BME280;45867;52.480;6.056;2023-04-09T00:40:42;102639.47;;;7.93;100.00
60015;BME280;45867;52.480;6.056;2023-04-09T00:43:07;102656.34;;;7.92;100.00
60015;BME280;45867;52.480;6.056;2023-04-09T00:45:33;102656.34;;;7.92;100.00
60015;BME280;45867;52.480;6.056;2023-04-09T00:47:58;102657.34;;;7.97;100.00
60015;BME280;45867;52.480;6.056;2023-04-09T00:50:23;102668.09;;;7.96;100.00
60015;BME280;45867;52.480;6.056;2023-04-09T00:52:49;102657.94;;;7.93;100.00
60015;BME280;45867;52.480;6.056;2023-04-09T00:55:15;102650.84;;;7.93;100.00
60015;BME280;45867;52.480;6.056;2023-04-09T00:57:41;102657.16;;;7.92;100.00
60015;BME280;45867;52.480;6.056;2023-04-09T01:00:07;102652.47;;;7.88;100.00
60015;BME280;45867;52.480;6.056;2023-04-09T01:02:33;102660.19;;;7.89;100.00
60015;BME280;45867;52.480;6.056;2023-04-09T01:04:59;102651.88;;;7.86;100.00
60015;BME280;45867;52.480;6.056;2023-04-09T01:07:30;102655.69;;;7.96;100.00
60015;BME280;45867;52.480;6.056;2023-04-09T01:10:06;102654.69;;;7.84;100.00
60015;BME280;45867;52.480;6.056;2023-04-09T01:12:52;102646.38;;;7.81;100.00
60015;BME280;45867;52.480;6.056;2023-04-09T01:15:25;102654.09;;;7.82;100.00
60015;BME280;45867;52.480;6.056;2023-04-09T01:18:09;102646.59;;;7.72;100.00
60015;BME280;45867;52.480;6.056;2023-04-09T01:20:41;102641.91;;;7.74;100.00
60015;BME280;45867;52.480;6.056;2023-04-09T01:28:41;102640.09;;;7.82;100.00
60015;BME280;45867;52.480;6.056;2023-04-09T01:31:13;102639.69;;;7.78;100.00
60015;BME280;45867;52.480;6.056;2023-04-09T01:33:40;102636.63;;;7.74;100.00
60015;BME280;45867;52.480;6.056;2023-04-09T01:36:06;102631.34;;;7.81;100.00
60015;BME280;45867;52.480;6.056;2023-04-09T01:38:34;102635.00;;;7.73;100.00
60015;BME280;45867;52.480;6.056;2023-04-09T01:41:01;102632.19;;;7.75;100.00
60015;BME280;45867;52.480;6.056;2023-04-09T01:43:27;102628.91;;;7.66;100.00
60015;BME280;45867;52.480;6.056;2023-04-09T01:45:53;102616.13;;;7.56;100.00
60015;BME280;45867;52.480;6.056;2023-04-09T01:48:19;102626.25;;;7.66;100.00
60015;BME280;45867;52.480;6.056;2023-04-09T01:50:45;102631.53;;;7.66;100.00
60015;BME280;45867;52.480;6.056;2023-04-09T01:53:11;102631.53;;;7.66;100.00
60015;BME280;45867;52.480;6.056;2023-04-09T01:55:37;102616.75;;;7.59;100.00
60015;BME280;45867;52.480;6.056;2023-04-09T01:58:02;102608.22;;;7.56;100.00
60015;BME280;45867;52.480;6.056;2023-04-09T02:00:34;102619.16;;;7.60;100.00
60015;BME280;45867;52.480;6.056;2023-04-09T02:03:05;102624.66;;;7.65;100.00
60015;BME280;45867;52.480;6.056;2023-04-09T02:05:36;102626.25;;;7.66;100.00
60015;BME280;45867;52.480;6.056;2023-04-09T02:08:05;102612.47;;;7.64;100.00
60015;BME280;45867;52.480;6.056;2023-04-09T02:10:34;102616.13;;;7.56;100.00
60015;BME280;45867;52.480;6.056;2023-04-09T02:13:00;102611.06;;;7.62;100.00
60015;BME280;45867;52.480;6.056;2023-04-09T02:15:30;102609.19;;;7.55;100.00
60015;BME280;45867;52.480;6.056;2023-04-09T02:17:56;102602.50;;;7.66;100.00
60015;BME280;45867;52.480;6.056;2023-04-09T02:20:21;102604.53;;;7.57;100.00
60015;BME280;45867;52.480;6.056;2023-04-09T02:22:47;102612.28;;;7.59;100.00
60015;BME280;45867;52.480;6.056;2023-04-09T02:25:12;102600.69;;;7.53;100.00
60015;BME280;45867;52.480;6.056;2023-04-09T02:27:38;102605.97;;;7.53;100.00
60015;BME280;45867;52.480;6.056;2023-04-09T02:30:04;102607.81;;;7.60;100.00
60015;BME280;45867;52.480;6.056;2023-04-09T02:32:29;102606.19;;;7.59;100.00
60015;BME280;45867;52.480;6.056;2023-04-09T02:34:54;102599.28;;;7.64;100.00
60015;BME280;45867;52.480;6.056;2023-04-09T02:37:20;102586.47;;;7.54;100.00
60015;BME280;45867;52.480;6.056;2023-04-09T02:39:45;102596.84;;;7.63;100.00
60015;BME280;45867;52.480;6.056;2023-04-09T02:42:10;102598.06;;;7.53;100.00
60015;BME280;45867;52.480;6.056;2023-04-09T02:44:36;102596.63;;;7.51;100.00
60015;BME280;45867;52.480;6.056;2023-04-09T02:47:01;102596.41;;;7.52;100.00
60015;BME280;45867;52.480;6.056;2023-04-09T02:49:27;102596.03;;;7.42;100.00
60015;BME280;45867;52.480;6.056;2023-04-09T02:51:52;102605.16;;;7.46;100.00
60015;BME280;45867;52.480;6.056;2023-04-09T02:54:18;102598.25;;;7.45;100.00
60015;BME280;45867;52.480;6.056;2023-04-09T02:56:43;102590.53;;;7.44;100.00
60015;BME280;45867;52.480;6.056;2023-04-09T02:59:09;102585.47;;;7.42;100.00
60015;BME280;45867;52.480;6.056;2023-04-09T03:01:34;102590.72;;;7.36;100.00
60015;BME280;45867;52.480;6.056;2023-04-09T03:04:00;102589.09;;;7.41;100.00
60015;BME280;45867;52.480;6.056;2023-04-09T03:06:25;102582.41;;;7.32;100.00
60015;BME280;45867;52.480;6.056;2023-04-09T03:08:51;102578.75;;;7.33;100.00
60015;BME280;45867;52.480;6.056;2023-04-09T03:11:16;102581.81;;;7.43;100.00
60015;BME280;45867;52.480;6.056;2023-04-09T03:13:41;102572.25;;;7.36;100.00
60015;BME280;45867;52.480;6.056;2023-04-09T03:16:07;102580.56;;;7.39;100.00
60015;BME280;45867;52.480;6.056;2023-04-09T03:18:34;102582.22;;;7.40;100.00
60015;BME280;45867;52.480;6.056;2023-04-09T03:21:03;102584.47;;;7.37;100.00
60015;BME280;45867;52.480;6.056;2023-04-09T03:23:29;102579.78;;;7.39;100.00
60015;BME280;45867;52.480;6.056;2023-04-09T03:26:00;102578.16;;;7.38;100.00
60015;BME280;45867;52.480;6.056;2023-04-09T03:28:25;102578.75;;;7.33;100.00
60015;BME280;45867;52.480;6.056;2023-04-09T03:30:50;102563.94;;;7.25;100.00
60015;BME280;45867;52.480;6.056;2023-04-09T03:33:16;102574.91;;;7.29;100.00
60015;BME280;45867;52.480;6.056;2023-04-09T03:35:41;102578.34;;;7.36;100.00
60015;BME280;45867;52.480;6.056;2023-04-09T03:38:07;102577.53;;;7.36;100.00
60015;BME280;45867;52.480;6.056;2023-04-09T03:40:32;102569.81;;;7.27;100.00
60015;BME280;45867;52.480;6.056;2023-04-09T03:42:57;102576.13;;;7.26;100.00
60015;BME280;45867;52.480;6.056;2023-04-09T03:45:23;102578.34;;;7.29;100.00
60015;BME280;45867;52.480;6.056;2023-04-09T03:47:48;102578.34;;;7.29;100.00
60015;BME280;45867;52.480;6.056;2023-04-09T03:50:13;102575.31;;;7.32;100.00
60015;BME280;45867;52.480;6.056;2023-04-09T03:52:39;102570.03;;;7.26;100.00
60015;BME280;45867;52.480;6.056;2023-04-09T03:55:04;102572.06;;;7.24;100.00
60015;BME280;45867;52.480;6.056;2023-04-09T03:57:30;102572.88;;;7.24;100.00
60015;BME280;45867;52.480;6.056;2023-04-09T03:59:55;102572.88;;;7.18;100.00
60015;BME280;45867;52.480;6.056;2023-04-09T04:02:21;102569.59;;;7.16;100.00
60015;BME280;45867;52.480;6.056;2023-04-09T04:04:46;102574.47;;;7.19;100.00
60015;BME280;45867;52.480;6.056;2023-04-09T04:07:11;102563.53;;;7.22;100.00
60015;BME280;45867;52.480;6.056;2023-04-09T04:09:36;102565.53;;;7.20;100.00
60015;BME280;45867;52.480;6.056;2023-04-09T04:12:02;102571.22;;;7.17;100.00
60015;BME280;45867;52.480;6.056;2023-04-09T04:14:28;102561.09;;;7.20;100.00
60015;BME280;45867;52.480;6.056;2023-04-09T04:16:53;102557.63;;;7.20;100.00
60015;BME280;45867;52.480;6.056;2023-04-09T04:19:18;102561.91;;;7.21;100.00
60015;BME280;45867;52.480;6.056;2023-04-09T04:21:44;102554.19;;;7.19;100.00
60015;BME280;45867;52.480;6.056;2023-04-09T04:24:09;102558.25;;;7.15;100.00
60015;BME280;45867;52.480;6.056;2023-04-09T04:26:35;102567.78;;;7.23;100.00
60015;BME280;45867;52.480;6.056;2023-04-09T04:29:00;102572.66;;;7.19;100.00
60015;BME280;45867;52.480;6.056;2023-04-09T04:31:25;102566.16;;;7.15;100.00
60015;BME280;45867;52.480;6.056;2023-04-09T04:33:50;102564.53;;;7.14;100.00
60015;BME280;45867;52.480;6.056;2023-04-09T04:36:16;102572.06;;;7.24;100.00
60015;BME280;45867;52.480;6.056;2023-04-09T04:38:41;102569.19;;;7.25;100.00
60015;BME280;45867;52.480;6.056;2023-04-09T04:41:06;102555.22;;;7.18;100.00
60015;BME280;45867;52.480;6.056;2023-04-09T04:43:32;102572.66;;;7.19;100.00
60015;BME280;45867;52.480;6.056;2023-04-09T04:45:58;102582.38;;;7.19;100.00
60015;BME280;45867;52.480;6.056;2023-04-09T04:48:23;102567.56;;;7.04;100.00
60015;BME280;45867;52.480;6.056;2023-04-09T04:50:59;102576.28;;;7.11;100.00
60015;BME280;45867;52.480;6.056;2023-04-09T04:53:25;102578.50;;;7.08;100.00
60015;BME280;45867;52.480;6.056;2023-04-09T04:55:51;102580.75;;;7.11;100.00
60015;BME280;45867;52.480;6.056;2023-04-09T04:58:17;102579.75;;;7.12;100.00
60015;BME280;45867;52.480;6.056;2023-04-09T05:00:42;102575.69;;;7.16;100.00
60015;BME280;45867;52.480;6.056;2023-04-09T05:03:08;102582.78;;;7.16;100.00
60015;BME280;45867;52.480;6.056;2023-04-09T05:05:33;102571.44;;;7.15;100.00
60015;BME280;45867;52.480;6.056;2023-04-09T05:07:59;102571.44;;;7.15;100.00
60015;BME280;45867;52.480;6.056;2023-04-09T05:10:24;102575.69;;;7.23;100.00
60015;BME280;45867;52.480;6.056;2023-04-09T05:12:50;102584.25;;;7.31;100.00
60015;BME280;45867;52.480;6.056;2023-04-09T05:15:15;102567.59;;;7.31;100.00
60015;BME280;45867;52.480;6.056;2023-04-09T05:17:44;102572.28;;;7.29;100.00
60015;BME280;45867;52.480;6.056;2023-04-09T05:20:10;102571.47;;;7.35;100.00
60015;BME280;45867;52.480;6.056;2023-04-09T05:22:35;102559.88;;;7.29;100.00
60015;BME280;45867;52.480;6.056;2023-04-09T05:25:01;102567.41;;;7.26;100.00
60015;BME280;45867;52.480;6.056;2023-04-09T05:27:27;102572.88;;;7.24;100.00
60015;BME280;45867;52.480;6.056;2023-04-09T05:29:52;102576.50;;;7.17;100.00
60015;BME280;45867;52.480;6.056;2023-04-09T05:32:18;102568.81;;;7.15;100.00
60015;BME280;45867;52.480;6.056;2023-04-09T05:34:43;102569.78;;;7.14;100.00
60015;BME280;45867;52.480;6.056;2023-04-09T05:37:08;102560.88;;;7.22;100.00
60015;BME280;45867;52.480;6.056;2023-04-09T05:39:34;102575.09;;;7.27;100.00
60015;BME280;45867;52.480;6.056;2023-04-09T05:41:59;102572.47;;;7.27;100.00
60015;BME280;45867;52.480;6.056;2023-04-09T05:44:25;102573.25;;;7.28;100.00
60015;BME280;45867;52.480;6.056;2023-04-09T05:46:50;102576.72;;;7.35;100.00
60015;BME280;45867;52.480;6.056;2023-04-09T05:49:16;102577.53;;;7.29;100.00
60015;BME280;45867;52.480;6.056;2023-04-09T05:51:41;102579.78;;;7.39;100.00
60015;BME280;45867;52.480;6.056;2023-04-09T05:54:07;102574.28;;;7.47;100.00
60015;BME280;45867;52.480;6.056;2023-04-09T05:56:32;102579.19;;;7.43;100.00
60015;BME280;45867;52.480;6.056;2023-04-09T05:58:58;102580.78;;;7.44;100.00
60015;BME280;45867;52.480;6.056;2023-04-09T06:01:23;102572.69;;;7.46;100.00
60015;BME280;45867;52.480;6.056;2023-04-09T06:03:48;102590.75;;;7.49;100.00
60015;BME280;45867;52.480;6.056;2023-04-09T06:06:14;102589.53;;;7.51;100.00
60015;BME280;45867;52.480;6.056;2023-04-09T06:08:39;102591.56;;;7.56;100.00
60015;BME280;45867;52.480;6.056;2023-04-09T06:11:08;102586.69;;;7.60;100.00
60015;BME280;45867;52.480;6.056;2023-04-09T06:13:34;102588.31;;;7.67;100.00
60015;BME280;45867;52.480;6.056;2023-04-09T06:15:59;102581.63;;;7.65;100.00
60015;BME280;45867;52.480;6.056;2023-04-09T06:18:25;102578.38;;;7.69;100.00
60015;BME280;45867;52.480;6.056;2023-04-09T06:21:00;102592.59;;;7.75;100.00
60015;BME280;45867;52.480;6.056;2023-04-09T06:23:26;102591.16;;;7.86;100.00
60015;BME280;45867;52.480;6.056;2023-04-09T06:25:51;102590.75;;;7.82;100.00
60015;BME280;45867;52.480;6.056;2023-04-09T06:28:17;102597.44;;;7.85;100.00
60015;BME280;45867;52.480;6.056;2023-04-09T06:30:42;102593.81;;;7.86;100.00
60015;BME280;45867;52.480;6.056;2023-04-09T06:33:07;102589.72;;;7.90;100.00
60015;BME280;45867;52.480;6.056;2023-04-09T06:35:33;102590.75;;;7.95;100.00
60015;BME280;45867;52.480;6.056;2023-04-09T06:37:58;102580.56;;;7.99;100.00
60015;BME280;45867;52.480;6.056;2023-04-09T06:40:23;102583.00;;;8.14;100.00
60015;BME280;45867;52.480;6.056;2023-04-09T06:42:49;102591.50;;;8.22;100.00
60015;BME280;45867;52.480;6.056;2023-04-09T06:45:14;102595.16;;;8.28;100.00
60015;BME280;45867;52.480;6.056;2023-04-09T06:47:39;102585.00;;;8.25;100.00
60015;BME280;45867;52.480;6.056;2023-04-09T06:50:05;102600.63;;;8.47;100.00
60015;BME280;45867;52.480;6.056;2023-04-09T06:52:31;102584.16;;;8.38;100.00
60015;BME280;45867;52.480;6.056;2023-04-09T06:54:56;102598.75;;;8.54;100.00
60015;BME280;45867;52.480;6.056;2023-04-09T06:57:21;102594.06;;;8.56;100.00
60015;BME280;45867;52.480;6.056;2023-04-09T06:59:46;102608.25;;;8.75;100.00
60015;BME280;45867;52.480;6.056;2023-04-09T07:02:12;102593.72;;;8.91;100.00
60015;BME280;45867;52.480;6.056;2023-04-09T07:04:37;102595.50;;;9.03;100.00
60015;BME280;45867;52.480;6.056;2023-04-09T07:07:03;102605.44;;;9.08;100.00
60015;BME280;45867;52.480;6.056;2023-04-09T07:09:28;102603.94;;;9.19;100.00
60015;BME280;45867;52.480;6.056;2023-04-09T07:11:54;102603.84;;;9.39;100.00
60015;BME280;45867;52.480;6.056;2023-04-09T07:14:19;102604.75;;;9.51;100.00
60015;BME280;45867;52.480;6.056;2023-04-09T07:16:45;102613.63;;;9.63;100.00
60015;BME280;45867;52.480;6.056;2023-04-09T07:19:13;102595.78;;;9.52;100.00
60015;BME280;45867;52.480;6.056;2023-04-09T07:21:38;102606.75;;;9.55;100.00
60015;BME280;45867;52.480;6.056;2023-04-09T07:24:04;102608.19;;;9.51;100.00
60015;BME280;45867;52.480;6.056;2023-04-09T07:26:29;102613.31;;;9.46;100.00
60015;BME280;45867;52.480;6.056;2023-04-09T07:28:55;102617.56;;;9.79;100.00
60015;BME280;45867;52.480;6.056;2023-04-09T07:31:22;102611.09;;;10.18;100.00
60015;BME280;45867;52.480;6.056;2023-04-09T07:33:48;102602.81;;;10.52;100.00
60015;BME280;45867;52.480;6.056;2023-04-09T07:36:13;102608.66;;;10.91;100.00
60015;BME280;45867;52.480;6.056;2023-04-09T07:38:38;102625.88;;;11.30;100.00
60015;BME280;45867;52.480;6.056;2023-04-09T07:41:04;102625.78;;;11.06;100.00
60015;BME280;45867;52.480;6.056;2023-04-09T07:43:30;102622.47;;;11.11;100.00
60015;BME280;45867;52.480;6.056;2023-04-09T07:45:56;102617.88;;;11.72;100.00
60015;BME280;45867;52.480;6.056;2023-04-09T07:48:21;102605.63;;;12.41;100.00
60015;BME280;45867;52.480;6.056;2023-04-09T07:50:46;102619.53;;;12.08;100.00
60015;BME280;45867;52.480;6.056;2023-04-09T07:53:12;102610.81;;;12.48;100.00
60015;BME280;45867;52.480;6.056;2023-04-09T07:55:38;102618.13;;;13.72;100.00
60015;BME280;45867;52.480;6.056;2023-04-09T07:58:04;102620.44;;;14.63;100.00
60015;BME280;45867;52.480;6.056;2023-04-09T08:00:30;102621.78;;;14.66;100.00
60015;BME280;45867;52.480;6.056;2023-04-09T08:02:55;102634.50;;;15.35;100.00
60015;BME280;45867;52.480;6.056;2023-04-09T08:05:21;102631.69;;;15.52;100.00
60015;BME280;45867;52.480;6.056;2023-04-09T08:07:47;102635.00;;;15.64;100.00
60015;BME280;45867;52.480;6.056;2023-04-09T08:10:12;102641.53;;;16.16;100.00
60015;BME280;45867;52.480;6.056;2023-04-09T08:12:39;102637.00;;;16.79;100.00
60015;BME280;45867;52.480;6.056;2023-04-09T08:15:05;102632.72;;;16.15;100.00
60015;BME280;45867;52.480;6.056;2023-04-09T08:17:31;102646.34;;;16.77;100.00
60015;BME280;45867;52.480;6.056;2023-04-09T08:19:56;102635.66;;;16.82;100.00
60015;BME280;45867;52.480;6.056;2023-04-09T08:22:21;102623.03;;;16.67;100.00
60015;BME280;45867;52.480;6.056;2023-04-09T08:24:50;102643.50;;;17.09;100.00
60015;BME280;45867;52.480;6.056;2023-04-09T08:27:16;102638.97;;;17.61;100.00
60015;BME280;45867;52.480;6.056;2023-04-09T08:29:42;102638.97;;;17.61;100.00
60015;BME280;45867;52.480;6.056;2023-04-09T08:32:07;102630.66;;;17.37;100.00
60015;BME280;45867;52.480;6.056;2023-04-09T08:34:32;102625.56;;;17.50;100.00
60015;BME280;45867;52.480;6.056;2023-04-09T08:36:58;102621.59;;;18.49;100.00
60015;BME280;45867;52.480;6.056;2023-04-09T08:39:26;102624.28;;;18.44;97.04
60015;BME280;45867;52.480;6.056;2023-04-09T08:41:51;102628.47;;;18.70;95.27
60015;BME280;45867;52.480;6.056;2023-04-09T08:44:17;102638.31;;;19.59;98.85
60015;BME280;45867;52.480;6.056;2023-04-09T08:46:42;102639.34;;;19.34;89.13
60015;BME280;45867;52.480;6.056;2023-04-09T08:49:09;102633.22;;;20.15;89.69
60015;BME280;45867;52.480;6.056;2023-04-09T08:51:37;102639.50;;;20.54;85.99
60015;BME280;45867;52.480;6.056;2023-04-09T08:54:03;102631.28;;;20.83;81.96
60015;BME280;45867;52.480;6.056;2023-04-09T08:56:29;102633.25;;;21.15;80.85
60015;BME280;45867;52.480;6.056;2023-04-09T08:59:00;102637.72;;;20.68;74.65
60015;BME280;45867;52.480;6.056;2023-04-09T09:01:28;102633.66;;;21.22;78.22
60015;BME280;45867;52.480;6.056;2023-04-09T09:03:59;102632.25;;;20.54;74.08
60015;BME280;45867;52.480;6.056;2023-04-09T09:06:27;102628.84;;;20.44;77.05
60015;BME280;45867;52.480;6.056;2023-04-09T09:08:59;102629.09;;;20.23;73.51
60015;BME280;45867;52.480;6.056;2023-04-09T09:11:25;102619.75;;;20.15;76.97
60015;BME280;45867;52.480;6.056;2023-04-09T09:13:57;102622.78;;;20.33;76.12
60015;BME280;45867;52.480;6.056;2023-04-09T09:16:22;102619.13;;;21.04;74.37
60015;BME280;45867;52.480;6.056;2023-04-09T09:18:48;102618.00;;;21.57;71.86
60015;BME280;45867;52.480;6.056;2023-04-09T09:21:15;102622.19;;;21.63;65.70
60015;BME280;45867;52.480;6.056;2023-04-09T09:23:42;102608.59;;;21.55;65.32
60015;BME280;45867;52.480;6.056;2023-04-09T09:26:20;102621.19;;;21.26;62.63
60015;BME280;45867;52.480;6.056;2023-04-09T09:28:47;102617.31;;;21.79;61.73
60015;BME280;45867;52.480;6.056;2023-04-09T09:31:29;102617.63;;;21.64;62.14
60015;BME280;45867;52.480;6.056;2023-04-09T09:33:55;102619.66;;;22.00;59.77
60015;BME280;45867;52.480;6.056;2023-04-09T09:36:33;102605.31;;;21.58;66.67
60015;BME280;45867;52.480;6.056;2023-04-09T09:39:01;102607.38;;;22.21;56.23
60015;BME280;45867;52.480;6.056;2023-04-09T09:41:34;102606.88;;;22.19;52.56
60015;BME280;45867;52.480;6.056;2023-04-09T09:44:00;102605.38;;;22.63;54.67
60015;BME280;45867;52.480;6.056;2023-04-09T09:46:26;102608.00;;;23.13;52.59
60015;BME280;45867;52.480;6.056;2023-04-09T09:48:52;102601.41;;;23.59;49.47
60015;BME280;45867;52.480;6.056;2023-04-09T09:51:18;102604.66;;;23.70;47.38
60015;BME280;45867;52.480;6.056;2023-04-09T09:53:44;102610.75;;;23.76;43.94
60015;BME280;45867;52.480;6.056;2023-04-09T09:56:14;102599.34;;;20.95;51.16
60015;BME280;45867;52.480;6.056;2023-04-09T09:58:48;102606.34;;;23.26;47.09
60015;BME280;45867;52.480;6.056;2023-04-09T10:01:16;102597.81;;;23.10;48.04
60015;BME280;45867;52.480;6.056;2023-04-09T10:03:45;102601.72;;;23.89;44.87
60015;BME280;45867;52.480;6.056;2023-04-09T10:06:12;102593.66;;;23.66;43.58
60015;BME280;45867;52.480;6.056;2023-04-09T10:08:39;102597.09;;;23.49;45.71
60015;BME280;45867;52.480;6.056;2023-04-09T10:11:06;102600.97;;;24.06;44.48
60015;BME280;45867;52.480;6.056;2023-04-09T10:13:40;102596.75;;;24.40;44.57
60015;BME280;45867;52.480;6.056;2023-04-09T10:16:08;102592.56;;;24.33;45.31
60015;BME280;45867;52.480;6.056;2023-04-09T10:18:33;102585.38;;;22.87;42.34
60015;BME280;45867;52.480;6.056;2023-04-09T10:21:13;102590.75;;;23.94;42.74
60015;BME280;45867;52.480;6.056;2023-04-09T10:23:43;102580.47;;;25.00;43.99
60015;BME280;45867;52.480;6.056;2023-04-09T10:26:09;102573.94;;;25.96;38.18
60015;BME280;45867;52.480;6.056;2023-04-09T10:28:38;102568.75;;;25.43;39.19
60015;BME280;45867;52.480;6.056;2023-04-09T10:31:06;102568.38;;;24.89;42.68
60015;BME280;45867;52.480;6.056;2023-04-09T10:33:35;102573.75;;;25.07;38.74
60015;BME280;45867;52.480;6.056;2023-04-09T10:36:06;102564.59;;;25.76;40.50
60015;BME280;45867;52.480;6.056;2023-04-09T10:38:39;102569.94;;;24.38;40.96
60015;BME280;45867;52.480;6.056;2023-04-09T10:41:08;102567.88;;;24.96;40.23
60015;BME280;45867;52.480;6.056;2023-04-09T10:43:37;102561.50;;;24.40;40.67
60015;BME280;45867;52.480;6.056;2023-04-09T10:46:07;102558.66;;;24.71;41.07
60015;BME280;45867;52.480;6.056;2023-04-09T10:48:33;102566.16;;;24.56;40.11
60015;BME280;45867;52.480;6.056;2023-04-09T10:51:01;102549.16;;;23.19;41.97
60015;BME280;45867;52.480;6.056;2023-04-09T10:53:31;102556.63;;;22.91;43.26
60015;BME280;45867;52.480;6.056;2023-04-09T10:55:56;102547.03;;;22.12;44.24
60015;BME280;45867;52.480;6.056;2023-04-09T10:58:21;102555.75;;;21.40;46.50
60015;BME280;45867;52.480;6.056;2023-04-09T11:00:48;102555.78;;;22.59;42.96
60015;BME280;45867;52.480;6.056;2023-04-09T11:03:24;102549.56;;;23.35;43.06
60015;BME280;45867;52.480;6.056;2023-04-09T11:06:08;102545.66;;;25.11;40.29
60015;BME280;45867;52.480;6.056;2023-04-09T11:08:35;102531.84;;;23.20;40.69
60015;BME280;45867;52.480;6.056;2023-04-09T11:11:02;102543.34;;;23.65;42.06
60015;BME280;45867;52.480;6.056;2023-04-09T11:13:29;102530.44;;;24.54;43.19
60015;BME280;45867;52.480;6.056;2023-04-09T11:15:56;102532.44;;;25.57;39.35
60015;BME280;45867;52.480;6.056;2023-04-09T11:18:27;102536.78;;;26.29;37.98
60015;BME280;45867;52.480;6.056;2023-04-09T11:20:55;102529.13;;;24.17;37.97
60015;BME280;45867;52.480;6.056;2023-04-09T11:23:22;102533.47;;;23.69;40.50
60015;BME280;45867;52.480;6.056;2023-04-09T11:25:48;102533.03;;;22.60;39.43
60015;BME280;45867;52.480;6.056;2023-04-09T11:28:14;102527.13;;;20.92;44.69
60015;BME280;45867;52.480;6.056;2023-04-09T11:30:40;102511.09;;;21.75;44.40
60015;BME280;45867;52.480;6.056;2023-04-09T11:33:06;102519.34;;;22.20;42.56
60015;BME280;45867;52.480;6.056;2023-04-09T11:35:33;102512.28;;;22.92;42.63
60015;BME280;45867;52.480;6.056;2023-04-09T11:38:00;102509.16;;;22.03;41.05
60015;BME280;45867;52.480;6.056;2023-04-09T11:40:26;102488.59;;;23.68;39.95
60015;BME280;45867;52.480;6.056;2023-04-09T11:42:53;102518.81;;;24.36;38.41
60015;BME280;45867;52.480;6.056;2023-04-09T11:45:27;102523.41;;;24.79;39.15
60015;BME280;45867;52.480;6.056;2023-04-09T11:47:53;102515.25;;;24.79;37.58
60015;BME280;45867;52.480;6.056;2023-04-09T11:50:19;102515.25;;;24.79;35.92
60015;BME280;45867;52.480;6.056;2023-04-09T11:52:45;102507.88;;;22.96;39.10
60015;BME280;45867;52.480;6.056;2023-04-09T11:55:24;102505.81;;;23.73;38.83
60015;BME280;45867;52.480;6.056;2023-04-09T11:57:53;102516.19;;;26.41;36.93
60015;BME280;45867;52.480;6.056;2023-04-09T12:00:21;102509.28;;;25.51;34.46
60015;BME280;45867;52.480;6.056;2023-04-09T12:02:50;102513.91;;;25.88;34.48
60015;BME280;45867;52.480;6.056;2023-04-09T12:05:28;102508.91;;;26.32;34.96
60015;BME280;45867;52.480;6.056;2023-04-09T12:08:02;102493.50;;;25.06;33.81
60015;BME280;45867;52.480;6.056;2023-04-09T12:10:34;102501.41;;;24.03;36.20
60015;BME280;45867;52.480;6.056;2023-04-09T12:13:07;102503.56;;;23.66;34.60
60015;BME280;45867;52.480;6.056;2023-04-09T12:15:37;102504.16;;;24.64;35.58
60015;BME280;45867;52.480;6.056;2023-04-09T12:18:12;102502.06;;;22.66;38.93
60015;BME280;45867;52.480;6.056;2023-04-09T12:20:47;102482.03;;;21.72;38.86
60015;BME280;45867;52.480;6.056;2023-04-09T12:23:15;102493.41;;;21.83;39.35
60015;BME280;45867;52.480;6.056;2023-04-09T12:25:44;102495.25;;;22.24;37.93
60015;BME280;45867;52.480;6.056;2023-04-09T12:28:14;102509.06;;;22.08;40.88
60015;BME280;45867;52.480;6.056;2023-04-09T12:30:42;102507.69;;;23.63;36.58
60015;BME280;45867;52.480;6.056;2023-04-09T12:33:08;102500.03;;;22.72;38.79
60015;BME280;45867;52.480;6.056;2023-04-09T12:35:33;102496.91;;;22.56;36.67
60015;BME280;45867;52.480;6.056;2023-04-09T12:37:59;102495.03;;;22.56;36.99
60015;BME280;45867;52.480;6.056;2023-04-09T12:40:25;102492.81;;;24.27;36.72
60015;BME280;45867;52.480;6.056;2023-04-09T12:42:50;102484.63;;;24.96;34.19
60015;BME280;45867;52.480;6.056;2023-04-09T12:45:17;102457.97;;;24.90;34.95
60015;BME280;45867;52.480;6.056;2023-04-09T12:47:43;102465.22;;;23.81;33.93
60015;BME280;45867;52.480;6.056;2023-04-09T12:50:09;102463.13;;;22.22;35.70
60015;BME280;45867;52.480;6.056;2023-04-09T12:52:35;102444.28;;;22.53;37.79
60015;BME280;45867;52.480;6.056;2023-04-09T12:55:02;102452.41;;;23.07;36.42